Terminal Aerodrome Forecast
Issued by NWS Shreveport, LA

Home | Current Version | Previous Version | Text Only | Print | Product List | Glossary On
Versions: 1 2 3 4 5 6 7 8 9 10 11 12 13 14 15 16
242
FTUS44 KSHV 251720
TAFLFK
TAF
KLFK 251720Z 2518/2618 VRB03KT P6SM VCTS FEW015CB SCT040
      TEMPO 2518/2522 VRB15G22KT 3SM TSRA OVC040CB
     FM260100 12003KT P6SM FEW050 BKN130 BKN250
     FM260900 15003KT P6SM SCT250
     FM261400 05004KT P6SM SCT250=

USA.gov is the U.S. government's official web portal to all federal, state and local government web resources and services.